Terminal Aerodrome Forecast
Issued by NWS

Home | Current Version | Previous Version | Text Only | Print | Product List | Glossary On
Versions: 1 2 3 4 5 6 7 8 9 10 11 12 13 14 15 16 17 18 19 20 21 22 23 24 25
902
FTUS46 KSEW 220538
TAFSEA
TAF
KSEA 220538Z 2206/2312 15005KT P6SM BKN030 OVC050
      TEMPO 2207/2209 -SHRA BKN020 OVC040
     FM221000 06006KT P6SM SCT030 BKN045
     FM221600 10008KT P6SM -RA BKN035 OVC050
     FM222300 16006KT P6SM SCT050 BKN100=

USA.gov is the U.S. government's official web portal to all federal, state and local government web resources and services.